Johnsbury, Vermont
Current Conditions -  °F | °C
As of 2:55 AM on Thursday 23 Oct 2014 (Local Time) from KCDA Reporting Station
Light Rain Light Rain  
Wind Chill: 41°   Ceiling: 2000
Heat Index: 47°   Visibility: 10mi
Dew Point: 39°   Wind: 13mph
Humidity: 73%   Direction: 330°NNW
Pressure: 30"   Gusts: NA
Location:  44.4161°N, 71.9767°W
Report Text: KCDA 230655Z AUTO 33011KT 10SM -RA OVC020 08/04 A3000 RMK AO2 T00820037
Loading
Personal Weather Stations






























Interactive Weather Map
Tropical Storm Tracking
New forecast layout! Learn more

10-Day Weather Forecast

Advertisements
Track Severe Weather on mobile